Ride Results

Far-A-Way Easter Endurance Carnival 2010 (02-04-2010)
Ride distance: 80.0 km

Outcomes - Far-A-Way Easter Endurance Carnival 2010 (02-04-2010)
Division No. of Entries Retired / DNE Completed Withdrawn Ineligible V/O Percentage Completed
HW 15 - 7 2 - 6 46.67%
MW 38 - 25 3 - 10 65.79%
LW 18 - 14 - - 4 77.78%
JN 11 - 8 - - 3 72.73%
Totals 82 - 54 5 - 23 65.85%
Results - Far-A-Way Easter Endurance Carnival 2010 (02-04-2010)
No. Rider Horse Place Time Leg Speeds Total
Km/Hr
H/R bpm
Heavyweight
178 Matthew Gadsby Cherox Kariim 1 5:30:00 14.6, 14.3 14.55 34, 45, 50 (Avg:47)
176 Paul Lengronne Johroy Custom Made 1 (BC) 5:30:00 14.6, 14.3 14.55 39, 49, 52 (Avg:50)
166 Steve Clibborn Murland Park Mikahla 3 6:17:00 13.6, 11.5 12.73 30, 54, 56 (Avg:55)
127 Ven Grasso Aloha Spartacus 4 6:47:00 11.6, 12.0 11.79 38, 45, 55 (Avg:50)
115 Chris Nichols Tarwarri Sharhim 5 6:49:00 12.4, 10.8 11.74 38, 43, 56 (Avg:49)
131 Kellie Hart Noname 6 7:36:00 10.2, 10.9 10.53 38, 53, 55 (Avg:54)
162 Mark Harris Latif Jemima 7 11:05:00 11.0, 4.8 7.22 32, 51, 51 (Avg:51)
173 Melanie Askew EL Geronimo Lame L1 0:00:00 2.3 - 34, 0 (Avg:0)
138 Vanessa Cousins Nathham Park Thammus Lame L1 0:00:00 6.2 - 44, 49 (Avg:49)
124 Anita Evers Kohnray Parker Lame L1 0:00:00 14.8 - 38, 50 (Avg:50)
175 Greg Garred Performance Park Apollo Heart Rate L1 0:00:00 11.0 - 40, 72 (Avg:72)
182 Jenna Newton Molonga Cream Leo Withdrawn L1 0:00:00 - - 35, 47 (Avg:47)
186 Emma Quilter Kholonial Amelia Lame L1 0:00:00 2.3 - 36, 0 (Avg:0)
130 Steve Swan Longrun Silver Flynn Withdrawn L1 0:00:00 - - 38, 49 (Avg:49)
122 Dan Winkel Shardell Azeem Lame L1 0:00:00 10.6 - 39, 45 (Avg:45)
Middleweight
112 Matt Sample Brookleigh Callista 1 (BC) 4:29:00 17.5, 18.3 17.84 31, 41, 53 (Avg:47)
177 Camille Champagne-Bargenquast Banjo Star 2 4:34:00 17.0, 18.1 17.52 36, 50, 51 (Avg:50)
125 Gayle Holmes Captain's Creek Rupert 2 4:34:00 17.0, 18.1 17.52 38, 52, 58 (Avg:55)
148 Simone Krahnen Kalkadoon Zorro 4 5:23:00 14.3, 15.5 14.86 35, 42, 46 (Avg:44)
114 Tammie Bell Moon 5 6:11:00 13.6, 12.0 12.94 33, 48, 60 (Avg:54)
169 Jan Tyrrell Willandra Wind Lancer 5 6:11:00 13.6, 11.9 12.94 33, 51, 49 (Avg:50)
117 Corinne Kempter Indira 7 6:47:00 13.1, 10.2 11.79 34, 51, 48 (Avg:49)
164 Shelley Chapman Bellarine Amir 8 6:50:00 12.9, 10.3 11.71 36, 39, 44 (Avg:41)
163 Teresa Vermeer Bellarine Grey Pasha 8 6:50:00 12.9, 10.3 11.71 42, 47, 47 (Avg:47)
170 Tarnia Kittel Splendacrest Flamenco 10 7:01:00 11.5, 11.1 11.40 38, 41, 58 (Avg:49)
181 Madeleine Fisher Duray Djarq 11 7:06:00 11.9, 10.3 11.27 42, 46, 60 (Avg:53)
180 Ute Jordan Birru Avishaah 11 7:06:00 11.9, 10.3 11.27 34, 42, 47 (Avg:44)
145 Jane Davidson Cherox Bluebeard 13 7:07:00 11.6, 10.7 11.24 30, 45, 42 (Avg:43)
156 Jacqui Emery Stussy 14 7:10:00 11.4, 10.8 11.16 34, 40, 44 (Avg:42)
168 Jessica Kirsch Rio Sansha 15 7:30:00 11.3, 9.8 10.67 34, 41, 26 (Avg:33)
183 Billie Barron Shardell Sharana Golden 16 7:32:00 11.3, 9.7 10.62 32, 42, 52 (Avg:47)
155 Bridget Macintyre Poede Ashanti 17 7:33:00 11.4, 9.6 10.60 40, 53, 60 (Avg:56)
116 Karen Marriott Jayay Illuminati 18 7:38:00 11.4, 9.3 10.48 34, 46, 56 (Avg:51)
106 Ouida Ratapu Fazenda Ade'faz 18 7:38:00 11.8, 8.9 10.48 40, 42, 51 (Avg:46)
159 Bridget Nottle Justine te 20 8:03:00 10.0, 9.7 9.94 37, 41, 45 (Avg:43)
108 Ann Raabe Nangamba Alisaar 21 8:17:00 11.3, 7.9 9.66 42, 54, 57 (Avg:55)
107 Tania Sanderson Dark Century 21 8:17:00 11.3, 7.9 9.66 38, 46, 45 (Avg:45)
104 Sandy Hose Meltharina Mercury 23 8:18:00 8.6, 11.4 9.64 25, 42, 49 (Avg:45)
101 Pierre DeWit Dudley Dick te 24 8:22:00 10.0, 8.9 9.56 40, 49, 60 (Avg:54)
152 Alice Fennah Valinor Park Nickolai 25 8:57:00 7.9, 10.9 8.94 36, 54, 49 (Avg:51)
165 Natashja Burton Montville Dominico Lame L2 0:00:00 10.8, 10.1 - 36, 48, 48 (Avg:48)
137 Narelle Childs Follyfoot Heart Rate L2 0:00:00 15.6, 12.7 - 36, 53, 66 (Avg:59)
103 Peter Holmes Alamos Zarcos Heart Rate L2 0:00:00 13.4, 9.9 - 50, 45, 71 (Avg:58)
136 Rosemary Hull Ejen Park Azira Rose Lame L2 0:00:00 13.4, 12.2 - 36, 47, 57 (Avg:52)
185 Neil Kelly Fortaleza Loki Lame L2 0:00:00 8.3, 6.0 - 29, 46, 40 (Avg:43)
139 Ken Moir Eskdale Shakago Bae Heart Rate L2 0:00:00 16.2, 11.9 - 32, 55, 66 (Avg:60)
129 Akhmed Pshunov Abbeywood Romeo Heart Rate L2 0:00:00 16.2, 19.6 - 36, 55, 70 (Avg:62)
102 Celeste Manwaring Shian Lame L1 0:00:00 10.8 - 28, 51 (Avg:51)
120 Jeni Martin Mirrigen Houndini Withdrawn L1 0:00:00 - - 43 (Avg:43)
149 Derryn Nix Dunbar El Maestro Withdrawn L1 0:00:00 - - 36, 51 (Avg:51)
141 Frank Scadding Burralga Socrates Lame L1 0:00:00 9.2 - 40, 43 (Avg:43)
121 Karen Winkel Xanadu Barabbous Lame L1 0:00:00 16.9 - 42, 0 (Avg:0)
109 Stephen Gray Shartier el shareef Withdrawn P/R 0:00:00 - - 52
Lightweight
110 Maxine Leary Brookleigh Ricardo 1 (BC) 4:29:00 17.5, 18.3 17.84 33, 45, 43 (Avg:44)
154 Sasha Laws-King Tubbarubba Cheval 2 5:35:00 14.3, 14.2 14.33 40, 55, 54 (Avg:54)
134 Sue Jones El Castano Mirada 3 6:29:00 13.8, 10.7 12.34 28, 42, 47 (Avg:44)
135 Tylana Woodward Cooroora Carmen 3 6:29:00 13.8, 10.7 12.34 33, 43, 43 (Avg:43)
179 Leigh Rich Leondon Maritz 5 6:48:00 12.4, 10.9 11.76 36, 45, 50 (Avg:47)
171 Sachiko Murai Splendacrest Ulysses 6 7:01:00 11.5, 11.1 11.40 29, 38, 46 (Avg:42)
144 Samantha Mijik Celebration 7 7:07:00 11.6, 10.7 11.24 38, 48, 55 (Avg:51)
143 Kirsty Owen Cherox Cheetah 7 7:07:00 11.6, 10.7 11.24 34, 37, 42 (Avg:39)
140 Janelle Taylor Glenewan Scout 9 7:35:00 10.8, 10.1 10.55 33, 47, 50 (Avg:48)
113 Karen Hill Sa'eed 10 7:36:00 10.4, 10.5 10.53 34, 41, 45 (Avg:43)
157 Jenna Arnett Wild Oats TE 11 8:03:00 10.0, 9.7 9.94 36, 44, 47 (Avg:45)
160 Jessica Aistrope Rendezous te 12 8:22:00 10.2, 8.7 9.56 48, 46, 52 (Avg:49)
153 Amy- leigh Field Valinor Park Tripoli 13 8:57:00 7.9, 10.9 8.94 34, 37, 41 (Avg:39)
151 Lesley Page Shardell Desert Drifter 13 8:57:00 7.9, 10.9 8.94 35, 43, 54 (Avg:48)
142 Jeanna Maher Red Gum Trinket Lame L2 0:00:00 16.6, 12.7 - 42, 42, 44 (Avg:43)
161 Amanda Powell Turingal Park Nikolayev Heart Rate L2 0:00:00 11.3, 9.7 - 37, 48, 62 (Avg:55)
150 Emma Shone Brookleigh Diablo Lame L1 0:00:00 7.9 - 44, 43 (Avg:43)
133 Bec Miller Aquarius Park Chantilly Lace Lame P/R 0:00:00 - - 32
Junior
172 Erin Krahnen Rodborough Bey Abdul 1 5:23:00 14.3, 15.6 14.86 31, 40, 51 (Avg:45)
146 Colleen Krahnen Kalkadoon Viva 1 5:23:00 14.3, 15.6 14.86 42, 40, 47 (Avg:43)
174 Connor Krahnen Kalkadoon Shalom 1 5:23:00 14.3, 15.6 14.86 39, 50, 49 (Avg:49)
132 Jasmine Shields Porcelain Doll 4 (BC) 5:35:00 14.8, 13.6 14.33 33, 4, 27 (Avg:15)
184 Tia Cunnington Wattles Marcelle 5 7:13:00 13.2, 9.0 11.09 34, 53, 60 (Avg:56)
123 Cindy Williams Kirrong Khalaan 6 7:36:00 10.4, 10.5 10.53 40, 41, 46 (Avg:43)
158 Kaylah Aistrope Ned Kelly te 7 8:18:00 10.2, 8.8 9.64 35, 42, 46 (Avg:44)
105 Jade Vergis Meltharina Maralyc 7 8:18:00 8.6, 11.4 9.64 34, 43, 56 (Avg:49)
167 Steph Tulk Bellarine Passion Lame L2 0:00:00 12.8, 10.3 - 36, 45, 45 (Avg:45)
118 Kevin Kempter Gillian Lame L1 0:00:00 6.0 - 40, 42 (Avg:42)
128 Lainie Zischke Glenewan Sprite Metabolics moderate L1 0:00:00 11.9 - 27, 53 (Avg:53)